UAL1697 KSLC-KIAH
Flight info
| Callsign | UAL1697 |
|---|---|
| Flight time | 2h 28m |
| Altitude | 35000 |
| Route | RUGGD3 KIERA HBU PNH MQP GUSHR3 |
| Aircraft | B738/M-SDE2E3FGHIRWXY/LB1 |
Departure
| Time | 2026-05-07 23:55 |
|---|---|
| Airport | Salt Lake City International Airport (KSLC) |
Arrival
| Time | 2026-05-08 02:24 |
|---|---|
| Airport | George Bush Intercontinental Airport (KIAH) |
| Time | Latitude | Longitude | Altitude | Speed | Heading |
|---|---|---|---|---|---|
| 2026-05-07 23:21 | 40.78819 | -111.98890 | 4230 ft | 0 kts | 6° |
| 2026-05-07 23:44 | 40.78818 | -111.98890 | 4230 ft | 1 kts | 6° |
| 2026-05-07 23:45 | 40.78795 | -111.98893 | 4229 ft | 2 kts | 5° |
| 2026-05-07 23:45 | 40.78776 | -111.98892 | 4229 ft | 4 kts | 323° |
| 2026-05-07 23:45 | 40.78758 | -111.98873 | 4228 ft | 4 kts | 320° |
| 2026-05-07 23:45 | 40.78749 | -111.98863 | 4229 ft | 0 kts | 320° |
| 2026-05-07 23:49 | 40.78750 | -111.98870 | 4229 ft | 2 kts | 284° |
| 2026-05-07 23:49 | 40.78745 | -111.98929 | 4230 ft | 9 kts | 266° |
| 2026-05-07 23:49 | 40.78738 | -111.99009 | 4230 ft | 9 kts | 264° |
| 2026-05-07 23:49 | 40.78733 | -111.99088 | 4230 ft | 9 kts | 265° |
| 2026-05-07 23:50 | 40.78727 | -111.99179 | 4230 ft | 11 kts | 265° |
| 2026-05-07 23:50 | 40.78724 | -111.99291 | 4230 ft | 13 kts | 269° |
| 2026-05-07 23:50 | 40.78716 | -111.99416 | 4230 ft | 13 kts | 262° |
| 2026-05-07 23:50 | 40.78663 | -111.99465 | 4230 ft | 12 kts | 180° |
| 2026-05-07 23:51 | 40.78574 | -111.99456 | 4230 ft | 13 kts | 175° |
| 2026-05-07 23:51 | 40.78486 | -111.99446 | 4230 ft | 13 kts | 174° |
| 2026-05-07 23:51 | 40.78399 | -111.99435 | 4230 ft | 13 kts | 174° |
| 2026-05-07 23:51 | 40.78292 | -111.99422 | 4230 ft | 18 kts | 175° |
| 2026-05-07 23:52 | 40.78167 | -111.99409 | 4230 ft | 18 kts | 178° |
| 2026-05-07 23:52 | 40.78048 | -111.99425 | 4241 ft | 17 kts | 191° |
| 2026-05-07 23:52 | 40.77933 | -111.99435 | 4253 ft | 16 kts | 178° |
| 2026-05-07 23:52 | 40.77822 | -111.99422 | 4253 ft | 16 kts | 174° |
| 2026-05-07 23:53 | 40.77715 | -111.99409 | 4254 ft | 15 kts | 175° |
| 2026-05-07 23:53 | 40.77613 | -111.99398 | 4254 ft | 13 kts | 174° |
| 2026-05-07 23:53 | 40.77540 | -111.99409 | 4254 ft | 9 kts | 219° |
| 2026-05-07 23:53 | 40.77519 | -111.99484 | 4255 ft | 9 kts | 261° |
| 2026-05-07 23:54 | 40.77527 | -111.99547 | 4256 ft | 5 kts | 324° |
| 2026-05-07 23:54 | 40.77549 | -111.99552 | 4256 ft | 6 kts | 355° |
| 2026-05-07 23:54 | 40.77824 | -111.99586 | 4254 ft | 74 kts | 355° |
| 2026-05-07 23:54 | 40.78557 | -111.99672 | 4231 ft | 135 kts | 355° |
| 2026-05-07 23:55 | 40.79662 | -111.99800 | 4290 ft | 179 kts | 353° |
| 2026-05-07 23:55 | 40.80944 | -111.99973 | 4902 ft | 189 kts | 352° |
| 2026-05-07 23:55 | 40.82265 | -112.00130 | 5659 ft | 196 kts | 354° |
| 2026-05-07 23:55 | 40.83693 | -112.00263 | 6047 ft | 215 kts | 355° |
| 2026-05-07 23:56 | 40.85244 | -112.00380 | 6319 ft | 234 kts | 356° |
| 2026-05-07 23:56 | 40.86943 | -112.00492 | 6515 ft | 253 kts | 356° |
| 2026-05-07 23:56 | 40.88777 | -112.00613 | 6685 ft | 276 kts | 355° |
| 2026-05-07 23:56 | 40.90755 | -112.00744 | 7139 ft | 288 kts | 355° |
| 2026-05-07 23:57 | 40.92728 | -112.00866 | 8141 ft | 281 kts | 353° |
| 2026-05-07 23:57 | 40.94679 | -112.00989 | 8769 ft | 281 kts | 354° |
| 2026-05-07 23:57 | 40.96626 | -112.01115 | 9254 ft | 280 kts | 353° |
| 2026-05-07 23:57 | 40.98587 | -112.01242 | 10054 ft | 283 kts | 353° |
| 2026-05-07 23:58 | 41.00597 | -112.01375 | 10564 ft | 298 kts | 353° |
| 2026-05-07 23:58 | 41.02762 | -112.01336 | 10756 ft | 328 kts | 8° |
| 2026-05-07 23:58 | 41.04886 | -112.00041 | 11256 ft | 349 kts | 35° |
| 2026-05-07 23:58 | 41.06417 | -111.97514 | 12074 ft | 359 kts | 58° |
| 2026-05-07 23:59 | 41.07483 | -111.94500 | 12796 ft | 365 kts | 63° |
| 2026-05-07 23:59 | 41.08506 | -111.91376 | 13468 ft | 371 kts | 62° |
| 2026-05-07 23:59 | 41.09548 | -111.88275 | 14171 ft | 375 kts | 62° |
| 2026-05-07 23:59 | 41.10637 | -111.85123 | 14906 ft | 378 kts | 60° |
| 2026-05-08 00:00 | 41.11452 | -111.81767 | 15515 ft | 391 kts | 80° |
| 2026-05-08 00:00 | 41.11295 | -111.78150 | 16298 ft | 398 kts | 102° |
| 2026-05-08 00:00 | 41.10182 | -111.74825 | 16957 ft | 405 kts | 125° |
| 2026-05-08 00:00 | 41.08195 | -111.72167 | 17547 ft | 410 kts | 146° |
| 2026-05-08 00:01 | 41.05787 | -111.70119 | 18140 ft | 414 kts | 150° |
| 2026-05-08 00:01 | 41.03300 | -111.68137 | 18643 ft | 420 kts | 150° |
| 2026-05-08 00:01 | 41.00774 | -111.66150 | 19196 ft | 424 kts | 150° |
| 2026-05-08 00:01 | 40.98238 | -111.64135 | 19787 ft | 426 kts | 150° |
| 2026-05-08 00:02 | 40.95703 | -111.62102 | 20408 ft | 428 kts | 149° |
| 2026-05-08 00:02 | 40.93169 | -111.60048 | 20927 ft | 432 kts | 149° |
| 2026-05-08 00:02 | 40.90598 | -111.57955 | 21419 ft | 436 kts | 149° |
| 2026-05-08 00:02 | 40.88006 | -111.55843 | 21968 ft | 439 kts | 149° |
| 2026-05-08 00:03 | 40.85402 | -111.53715 | 22537 ft | 442 kts | 149° |
| 2026-05-08 00:03 | 40.82768 | -111.51577 | 23039 ft | 446 kts | 150° |
| 2026-05-08 00:03 | 40.80083 | -111.49504 | 23514 ft | 449 kts | 150° |
| 2026-05-08 00:03 | 40.77444 | -111.47262 | 23915 ft | 453 kts | 145° |
| 2026-05-08 00:04 | 40.74771 | -111.45027 | 24319 ft | 456 kts | 150° |
| 2026-05-08 00:04 | 40.72095 | -111.42767 | 24738 ft | 459 kts | 142° |
| 2026-05-08 00:04 | 40.69796 | -111.39828 | 25135 ft | 462 kts | 127° |
| 2026-05-08 00:04 | 40.68024 | -111.36316 | 25530 ft | 462 kts | 115° |
| 2026-05-08 00:05 | 40.66783 | -111.32411 | 25911 ft | 462 kts | 107° |
| 2026-05-08 00:05 | 40.65671 | -111.28427 | 26269 ft | 466 kts | 107° |
| 2026-05-08 00:05 | 40.64558 | -111.24401 | 26635 ft | 469 kts | 107° |
| 2026-05-08 00:05 | 40.63432 | -111.20364 | 26993 ft | 472 kts | 107° |
| 2026-05-08 00:06 | 40.62282 | -111.16303 | 27339 ft | 475 kts | 108° |
| 2026-05-08 00:06 | 40.61110 | -111.12219 | 27704 ft | 479 kts | 108° |
| 2026-05-08 00:06 | 40.59919 | -111.08104 | 27982 ft | 483 kts | 108° |
| 2026-05-08 00:06 | 40.58729 | -111.04020 | 28323 ft | 486 kts | 108° |
| 2026-05-08 00:07 | 40.57513 | -110.99855 | 28710 ft | 488 kts | 108° |
| 2026-05-08 00:07 | 40.56290 | -110.95675 | 29003 ft | 492 kts | 108° |
| 2026-05-08 00:07 | 40.55059 | -110.91473 | 29292 ft | 495 kts | 108° |
| 2026-05-08 00:07 | 40.53817 | -110.87239 | 29647 ft | 497 kts | 108° |
| 2026-05-08 00:08 | 40.52568 | -110.82982 | 29991 ft | 499 kts | 108° |
| 2026-05-08 00:08 | 40.51315 | -110.78719 | 30280 ft | 502 kts | 108° |
| 2026-05-08 00:08 | 40.50050 | -110.74421 | 30548 ft | 504 kts | 108° |
| 2026-05-08 00:08 | 40.48785 | -110.70133 | 30899 ft | 503 kts | 108° |
| 2026-05-08 00:09 | 40.47528 | -110.65879 | 31238 ft | 503 kts | 108° |
| 2026-05-08 00:09 | 40.46262 | -110.61600 | 31586 ft | 502 kts | 108° |
| 2026-05-08 00:09 | 40.44995 | -110.57322 | 31956 ft | 501 kts | 108° |
| 2026-05-08 00:09 | 40.43734 | -110.53067 | 32350 ft | 500 kts | 108° |
| 2026-05-08 00:10 | 40.42474 | -110.48828 | 32645 ft | 500 kts | 108° |
| 2026-05-08 00:10 | 40.41217 | -110.44557 | 32926 ft | 502 kts | 107° |
| 2026-05-08 00:10 | 40.40000 | -110.40254 | 33108 ft | 504 kts | 106° |
| 2026-05-08 00:10 | 40.38802 | -110.35927 | 33434 ft | 504 kts | 106° |
| 2026-05-08 00:11 | 40.37615 | -110.31623 | 33823 ft | 501 kts | 106° |
| 2026-05-08 00:11 | 40.36428 | -110.27337 | 34169 ft | 499 kts | 106° |
| 2026-05-08 00:11 | 40.35237 | -110.23068 | 34473 ft | 498 kts | 106° |
| 2026-05-08 00:11 | 40.34446 | -110.20241 | 34640 ft | 498 kts | 106° |
| 2026-05-08 00:12 | 40.33249 | -110.15984 | 34868 ft | 498 kts | 106° |
| 2026-05-08 00:12 | 40.32049 | -110.11724 | 34998 ft | 501 kts | 106° |
| 2026-05-08 00:12 | 40.29622 | -110.03139 | 34968 ft | 501 kts | 106° |
| 2026-05-08 00:13 | 40.27205 | -109.94611 | 34945 ft | 498 kts | 106° |
| 2026-05-08 00:13 | 40.24612 | -109.86210 | 34926 ft | 499 kts | 115° |
| 2026-05-08 00:14 | 40.22781 | -109.82348 | 34936 ft | 501 kts | 126° |
| 2026-05-08 00:14 | 40.20620 | -109.78772 | 34965 ft | 501 kts | 128° |
| 2026-05-08 00:14 | 40.16203 | -109.71729 | 34945 ft | 501 kts | 128° |
| 2026-05-08 00:15 | 40.11799 | -109.64681 | 34935 ft | 502 kts | 127° |
| 2026-05-08 00:15 | 40.07413 | -109.57573 | 34922 ft | 503 kts | 127° |
| 2026-05-08 00:16 | 40.03029 | -109.50440 | 34930 ft | 504 kts | 127° |
| 2026-05-08 00:16 | 39.98638 | -109.43309 | 34944 ft | 506 kts | 127° |
| 2026-05-08 00:17 | 39.94218 | -109.36151 | 34944 ft | 508 kts | 127° |
| 2026-05-08 00:17 | 39.89772 | -109.28970 | 34932 ft | 509 kts | 127° |
| 2026-05-08 00:18 | 39.85316 | -109.21792 | 34946 ft | 509 kts | 127° |
| 2026-05-08 00:18 | 39.80857 | -109.14626 | 34955 ft | 509 kts | 127° |
| 2026-05-08 00:19 | 39.76401 | -109.07482 | 34973 ft | 509 kts | 127° |
| 2026-05-08 00:19 | 39.71946 | -109.00353 | 34967 ft | 507 kts | 127° |
| 2026-05-08 00:20 | 39.67532 | -108.93306 | 34977 ft | 505 kts | 127° |
| 2026-05-08 00:20 | 39.63123 | -108.86285 | 34970 ft | 502 kts | 127° |
| 2026-05-08 00:21 | 39.58730 | -108.79303 | 34976 ft | 500 kts | 127° |
| 2026-05-08 00:21 | 39.54337 | -108.72335 | 34976 ft | 499 kts | 128° |
| 2026-05-08 00:22 | 39.49944 | -108.65386 | 34992 ft | 497 kts | 128° |
| 2026-05-08 00:22 | 39.45560 | -108.58459 | 34965 ft | 498 kts | 128° |
| 2026-05-08 00:23 | 39.41160 | -108.51529 | 34984 ft | 499 kts | 128° |
| 2026-05-08 00:23 | 39.36755 | -108.44604 | 34994 ft | 498 kts | 128° |
| 2026-05-08 00:24 | 39.32354 | -108.37705 | 35022 ft | 498 kts | 128° |
| 2026-05-08 00:24 | 39.27944 | -108.30803 | 35017 ft | 498 kts | 128° |
| 2026-05-08 00:25 | 39.23532 | -108.23914 | 35013 ft | 498 kts | 128° |
| 2026-05-08 00:25 | 39.19121 | -108.17039 | 34983 ft | 498 kts | 128° |
| 2026-05-08 00:26 | 39.14696 | -108.10161 | 34989 ft | 498 kts | 128° |
| 2026-05-08 00:26 | 39.10271 | -108.03293 | 34993 ft | 499 kts | 128° |
| 2026-05-08 00:27 | 39.05827 | -107.96412 | 34995 ft | 500 kts | 128° |
| 2026-05-08 00:27 | 39.01378 | -107.89540 | 35007 ft | 499 kts | 128° |
| 2026-05-08 00:28 | 38.96932 | -107.82688 | 35017 ft | 498 kts | 128° |
| 2026-05-08 00:28 | 38.92492 | -107.75858 | 34998 ft | 498 kts | 128° |
| 2026-05-08 00:29 | 38.88047 | -107.69036 | 34984 ft | 497 kts | 128° |
| 2026-05-08 00:29 | 38.83640 | -107.62287 | 34993 ft | 496 kts | 128° |
| 2026-05-08 00:30 | 38.79195 | -107.55493 | 34999 ft | 496 kts | 129° |
| 2026-05-08 00:30 | 38.74828 | -107.48835 | 34980 ft | 494 kts | 129° |
| 2026-05-08 00:31 | 38.70413 | -107.42115 | 35016 ft | 492 kts | 128° |
| 2026-05-08 00:31 | 38.66003 | -107.35411 | 35026 ft | 493 kts | 129° |
| 2026-05-08 00:32 | 38.61588 | -107.28726 | 35094 ft | 492 kts | 129° |
| 2026-05-08 00:32 | 38.57167 | -107.22037 | 35121 ft | 492 kts | 129° |
| 2026-05-08 00:33 | 38.52753 | -107.15373 | 35123 ft | 490 kts | 129° |
| 2026-05-08 00:33 | 38.48348 | -107.08736 | 35145 ft | 490 kts | 129° |
| 2026-05-08 00:34 | 38.44012 | -107.02030 | 35156 ft | 489 kts | 125° |
| 2026-05-08 00:34 | 38.40052 | -106.94986 | 35158 ft | 489 kts | 123° |
| 2026-05-08 00:35 | 38.36165 | -106.87878 | 35146 ft | 489 kts | 123° |
| 2026-05-08 00:35 | 38.32252 | -106.80792 | 35109 ft | 488 kts | 123° |
| 2026-05-08 00:36 | 38.28318 | -106.73746 | 35120 ft | 488 kts | 124° |
| 2026-05-08 00:36 | 38.24382 | -106.66734 | 35119 ft | 487 kts | 124° |
| 2026-05-08 00:37 | 38.20438 | -106.59726 | 35112 ft | 487 kts | 124° |
| 2026-05-08 00:38 | 38.14528 | -106.49246 | 35113 ft | 486 kts | 124° |
| 2026-05-08 00:38 | 38.10589 | -106.42278 | 35094 ft | 485 kts | 124° |
| 2026-05-08 00:39 | 38.06669 | -106.35358 | 35088 ft | 485 kts | 124° |
| 2026-05-08 00:39 | 38.02728 | -106.28415 | 35071 ft | 486 kts | 124° |
| 2026-05-08 00:40 | 37.98765 | -106.21444 | 35039 ft | 486 kts | 124° |
| 2026-05-08 00:40 | 37.94811 | -106.14511 | 35077 ft | 486 kts | 124° |
| 2026-05-08 00:41 | 37.90848 | -106.07577 | 35069 ft | 486 kts | 124° |
| 2026-05-08 00:41 | 37.86878 | -106.00643 | 35064 ft | 486 kts | 124° |
| 2026-05-08 00:42 | 37.82913 | -105.93730 | 35046 ft | 486 kts | 125° |
| 2026-05-08 00:42 | 37.78942 | -105.86824 | 35033 ft | 485 kts | 125° |
| 2026-05-08 00:43 | 37.74969 | -105.79927 | 35034 ft | 485 kts | 125° |
| 2026-05-08 00:43 | 37.71001 | -105.73054 | 35034 ft | 484 kts | 125° |
| 2026-05-08 00:44 | 37.67036 | -105.66201 | 35069 ft | 483 kts | 125° |
| 2026-05-08 00:44 | 37.63071 | -105.59361 | 35072 ft | 483 kts | 125° |
| 2026-05-08 00:45 | 37.59105 | -105.52533 | 35075 ft | 482 kts | 125° |
| 2026-05-08 00:45 | 37.55145 | -105.45724 | 35055 ft | 482 kts | 125° |
| 2026-05-08 00:46 | 37.51211 | -105.38983 | 35059 ft | 480 kts | 125° |
| 2026-05-08 00:46 | 37.47259 | -105.32221 | 35056 ft | 479 kts | 125° |
| 2026-05-08 00:47 | 37.43302 | -105.25466 | 35068 ft | 479 kts | 126° |
| 2026-05-08 00:47 | 37.39340 | -105.18716 | 35036 ft | 480 kts | 126° |
| 2026-05-08 00:48 | 37.35371 | -105.11967 | 35028 ft | 479 kts | 126° |
| 2026-05-08 00:48 | 37.31407 | -105.05241 | 35009 ft | 479 kts | 126° |
| 2026-05-08 00:49 | 37.27433 | -104.98509 | 35011 ft | 479 kts | 126° |
| 2026-05-08 00:49 | 37.23467 | -104.91804 | 34980 ft | 479 kts | 126° |
| 2026-05-08 00:50 | 37.19496 | -104.85105 | 34996 ft | 478 kts | 126° |
| 2026-05-08 00:50 | 37.15529 | -104.78427 | 34989 ft | 477 kts | 126° |
| 2026-05-08 00:51 | 37.11587 | -104.71805 | 35007 ft | 475 kts | 126° |
| 2026-05-08 00:51 | 37.07634 | -104.65175 | 35003 ft | 475 kts | 126° |
| 2026-05-08 00:52 | 37.03697 | -104.58586 | 34981 ft | 474 kts | 127° |
| 2026-05-08 00:52 | 36.99766 | -104.52020 | 35006 ft | 473 kts | 127° |
| 2026-05-08 00:53 | 36.95822 | -104.45445 | 35014 ft | 472 kts | 127° |
| 2026-05-08 00:53 | 36.91880 | -104.38885 | 35025 ft | 472 kts | 127° |
| 2026-05-08 00:54 | 36.87968 | -104.32390 | 35019 ft | 471 kts | 127° |
| 2026-05-08 00:54 | 36.84083 | -104.25950 | 35011 ft | 471 kts | 127° |
| 2026-05-08 00:55 | 36.80134 | -104.19417 | 35005 ft | 471 kts | 127° |
| 2026-05-08 00:55 | 36.76201 | -104.12924 | 34996 ft | 471 kts | 127° |
| 2026-05-08 00:56 | 36.72249 | -104.06412 | 34974 ft | 471 kts | 127° |
| 2026-05-08 00:56 | 36.68286 | -103.99895 | 34979 ft | 472 kts | 128° |
| 2026-05-08 00:57 | 36.64346 | -103.93427 | 34976 ft | 472 kts | 128° |
| 2026-05-08 00:57 | 36.60374 | -103.86919 | 34973 ft | 472 kts | 128° |
| 2026-05-08 00:58 | 36.56419 | -103.80451 | 34974 ft | 473 kts | 128° |
| 2026-05-08 00:58 | 36.52433 | -103.73945 | 34974 ft | 473 kts | 128° |
| 2026-05-08 00:59 | 36.49115 | -103.68540 | 34972 ft | 473 kts | 128° |
| 2026-05-08 00:59 | 36.45126 | -103.62053 | 34965 ft | 473 kts | 128° |
| 2026-05-08 01:00 | 36.41127 | -103.55563 | 34968 ft | 473 kts | 129° |
| 2026-05-08 01:00 | 36.37128 | -103.49085 | 34983 ft | 472 kts | 129° |
| 2026-05-08 01:01 | 36.33126 | -103.42610 | 34987 ft | 473 kts | 129° |
| 2026-05-08 01:01 | 36.29122 | -103.36148 | 34992 ft | 473 kts | 129° |
| 2026-05-08 01:02 | 36.25110 | -103.29684 | 34990 ft | 473 kts | 129° |
| 2026-05-08 01:02 | 36.21122 | -103.23271 | 34985 ft | 472 kts | 129° |
| 2026-05-08 01:03 | 36.17084 | -103.16790 | 34976 ft | 472 kts | 129° |
| 2026-05-08 01:03 | 36.13096 | -103.10402 | 34952 ft | 472 kts | 130° |
| 2026-05-08 01:04 | 36.09080 | -103.03979 | 34951 ft | 472 kts | 130° |
| 2026-05-08 01:04 | 36.05059 | -102.97563 | 34948 ft | 472 kts | 130° |
| 2026-05-08 01:05 | 36.01043 | -102.91165 | 34960 ft | 471 kts | 131° |
| 2026-05-08 01:05 | 35.97020 | -102.84769 | 34970 ft | 471 kts | 131° |
| 2026-05-08 01:06 | 35.93002 | -102.78392 | 34977 ft | 471 kts | 131° |
| 2026-05-08 01:06 | 35.88977 | -102.72014 | 34979 ft | 471 kts | 131° |
| 2026-05-08 01:07 | 35.84946 | -102.65641 | 34947 ft | 471 kts | 131° |
| 2026-05-08 01:07 | 35.80912 | -102.59274 | 34936 ft | 471 kts | 133° |
| 2026-05-08 01:08 | 35.76871 | -102.52909 | 34944 ft | 472 kts | 133° |
| 2026-05-08 01:08 | 35.72821 | -102.46542 | 34945 ft | 473 kts | 133° |
| 2026-05-08 01:09 | 35.68762 | -102.40170 | 34948 ft | 474 kts | 134° |
| 2026-05-08 01:09 | 35.64688 | -102.33789 | 34946 ft | 475 kts | 134° |
| 2026-05-08 01:10 | 35.60609 | -102.27409 | 34919 ft | 476 kts | 136° |
| 2026-05-08 01:10 | 35.56536 | -102.21051 | 34934 ft | 477 kts | 136° |
| 2026-05-08 01:11 | 35.52400 | -102.14607 | 34944 ft | 478 kts | 136° |
| 2026-05-08 01:11 | 35.48307 | -102.08242 | 34945 ft | 479 kts | 136° |
| 2026-05-08 01:12 | 35.44174 | -102.01825 | 34940 ft | 480 kts | 136° |
| 2026-05-08 01:12 | 35.40034 | -101.95409 | 34970 ft | 480 kts | 136° |
| 2026-05-08 01:13 | 35.35887 | -101.88997 | 34975 ft | 480 kts | 136° |
| 2026-05-08 01:13 | 35.31739 | -101.82591 | 34997 ft | 480 kts | 136° |
| 2026-05-08 01:14 | 35.27582 | -101.76183 | 35014 ft | 480 kts | 136° |
| 2026-05-08 01:14 | 35.23423 | -101.69785 | 35009 ft | 480 kts | 136° |
| 2026-05-08 01:15 | 35.19291 | -101.63391 | 35000 ft | 480 kts | 136° |
| 2026-05-08 01:15 | 35.15167 | -101.56987 | 34936 ft | 479 kts | 137° |
| 2026-05-08 01:16 | 35.11037 | -101.50587 | 34948 ft | 479 kts | 137° |
| 2026-05-08 01:16 | 35.06916 | -101.44218 | 34947 ft | 479 kts | 137° |
| 2026-05-08 01:17 | 35.02783 | -101.37844 | 34948 ft | 479 kts | 137° |
| 2026-05-08 01:17 | 34.98677 | -101.31523 | 34947 ft | 479 kts | 137° |
| 2026-05-08 01:18 | 34.94540 | -101.25156 | 34947 ft | 478 kts | 139° |
| 2026-05-08 01:18 | 34.90404 | -101.18821 | 34943 ft | 477 kts | 139° |
| 2026-05-08 01:19 | 34.86271 | -101.12498 | 34962 ft | 477 kts | 139° |
| 2026-05-08 01:19 | 34.82131 | -101.06168 | 34954 ft | 478 kts | 139° |
| 2026-05-08 01:20 | 34.77988 | -100.99846 | 34960 ft | 478 kts | 139° |
| 2026-05-08 01:20 | 34.73838 | -100.93525 | 34933 ft | 479 kts | 139° |
| 2026-05-08 01:21 | 34.69692 | -100.87221 | 34947 ft | 479 kts | 139° |
| 2026-05-08 01:21 | 34.65534 | -100.80910 | 34961 ft | 479 kts | 139° |
| 2026-05-08 01:22 | 34.61366 | -100.74597 | 34962 ft | 479 kts | 139° |
| 2026-05-08 01:22 | 34.57196 | -100.68291 | 34959 ft | 479 kts | 139° |
| 2026-05-08 01:23 | 34.53017 | -100.61982 | 34958 ft | 479 kts | 139° |
| 2026-05-08 01:23 | 34.48849 | -100.55699 | 34959 ft | 478 kts | 140° |
| 2026-05-08 01:24 | 34.44680 | -100.49428 | 34968 ft | 478 kts | 140° |
| 2026-05-08 01:24 | 34.40510 | -100.43169 | 34966 ft | 477 kts | 141° |
| 2026-05-08 01:25 | 34.36335 | -100.36913 | 34962 ft | 477 kts | 141° |
| 2026-05-08 01:25 | 34.32161 | -100.30667 | 34987 ft | 477 kts | 141° |
| 2026-05-08 01:26 | 34.27985 | -100.24430 | 34975 ft | 477 kts | 141° |
| 2026-05-08 01:26 | 34.23807 | -100.18200 | 34959 ft | 477 kts | 141° |
| 2026-05-08 01:27 | 34.19656 | -100.12022 | 34970 ft | 477 kts | 141° |
| 2026-05-08 01:27 | 34.15447 | -100.05770 | 34969 ft | 477 kts | 141° |
| 2026-05-08 01:28 | 34.11281 | -99.99592 | 34964 ft | 477 kts | 141° |
| 2026-05-08 01:28 | 34.07091 | -99.93388 | 34951 ft | 478 kts | 142° |
| 2026-05-08 01:29 | 34.02898 | -99.87183 | 34961 ft | 477 kts | 141° |
| 2026-05-08 01:29 | 33.98654 | -99.81081 | 34965 ft | 472 kts | 143° |
| 2026-05-08 01:30 | 33.94480 | -99.74927 | 34977 ft | 475 kts | 141° |
| 2026-05-08 01:30 | 33.90338 | -99.68732 | 34982 ft | 475 kts | 141° |
| 2026-05-08 01:31 | 33.86169 | -99.62568 | 34980 ft | 475 kts | 142° |
| 2026-05-08 01:31 | 33.81976 | -99.56417 | 34975 ft | 475 kts | 142° |
| 2026-05-08 01:32 | 33.77785 | -99.50290 | 34984 ft | 475 kts | 142° |
| 2026-05-08 01:32 | 33.73586 | -99.44160 | 34981 ft | 475 kts | 142° |
| 2026-05-08 01:33 | 33.69386 | -99.38038 | 34993 ft | 475 kts | 142° |
| 2026-05-08 01:33 | 33.65178 | -99.31913 | 34995 ft | 475 kts | 142° |
| 2026-05-08 01:34 | 33.60970 | -99.25798 | 34995 ft | 476 kts | 142° |
| 2026-05-08 01:34 | 33.56787 | -99.19728 | 34999 ft | 475 kts | 142° |
| 2026-05-08 01:35 | 33.52583 | -99.13640 | 34999 ft | 474 kts | 142° |
| 2026-05-08 01:35 | 33.48391 | -99.07578 | 34995 ft | 473 kts | 142° |
| 2026-05-08 01:36 | 33.44199 | -99.01528 | 35011 ft | 472 kts | 142° |
| 2026-05-08 01:36 | 33.40003 | -98.95483 | 35005 ft | 472 kts | 143° |
| 2026-05-08 01:37 | 33.35801 | -98.89440 | 34971 ft | 472 kts | 142° |
| 2026-05-08 01:37 | 33.31606 | -98.83413 | 35000 ft | 471 kts | 142° |
| 2026-05-08 01:38 | 33.27417 | -98.77408 | 35016 ft | 470 kts | 142° |
| 2026-05-08 01:38 | 33.23222 | -98.71404 | 35016 ft | 470 kts | 142° |
| 2026-05-08 01:39 | 33.19026 | -98.65409 | 35016 ft | 471 kts | 142° |
| 2026-05-08 01:39 | 33.14817 | -98.59404 | 35024 ft | 471 kts | 142° |
| 2026-05-08 01:40 | 33.10604 | -98.53404 | 35018 ft | 472 kts | 142° |
| 2026-05-08 01:40 | 33.06380 | -98.47397 | 35024 ft | 473 kts | 142° |
| 2026-05-08 01:41 | 33.02139 | -98.41378 | 35020 ft | 474 kts | 142° |
| 2026-05-08 01:41 | 32.97893 | -98.35358 | 35024 ft | 475 kts | 142° |
| 2026-05-08 01:42 | 32.93649 | -98.29366 | 35017 ft | 475 kts | 142° |
| 2026-05-08 01:42 | 32.89421 | -98.23380 | 35032 ft | 475 kts | 142° |
| 2026-05-08 01:43 | 32.85156 | -98.17361 | 35021 ft | 475 kts | 142° |
| 2026-05-08 01:43 | 32.80889 | -98.11351 | 35024 ft | 476 kts | 142° |
| 2026-05-08 01:44 | 32.76617 | -98.05342 | 35030 ft | 476 kts | 142° |
| 2026-05-08 01:44 | 32.72374 | -97.99391 | 35028 ft | 476 kts | 143° |
| 2026-05-08 01:45 | 32.67923 | -97.93648 | 35019 ft | 471 kts | 146° |
| 2026-05-08 01:45 | 32.63496 | -97.88210 | 35008 ft | 471 kts | 146° |
| 2026-05-08 01:46 | 32.58956 | -97.82615 | 35027 ft | 473 kts | 145° |
| 2026-05-08 01:46 | 32.55354 | -97.78141 | 35033 ft | 473 kts | 145° |
| 2026-05-08 01:47 | 32.52042 | -97.74022 | 35036 ft | 474 kts | 145° |
| 2026-05-08 01:47 | 32.47488 | -97.68346 | 35035 ft | 475 kts | 145° |
| 2026-05-08 01:48 | 32.41411 | -97.60785 | 35031 ft | 477 kts | 145° |
| 2026-05-08 01:48 | 32.36836 | -97.55107 | 35013 ft | 477 kts | 144° |
| 2026-05-08 01:49 | 32.32257 | -97.49434 | 35031 ft | 477 kts | 144° |
| 2026-05-08 01:49 | 32.27666 | -97.43758 | 35044 ft | 478 kts | 144° |
| 2026-05-08 01:50 | 32.23067 | -97.38079 | 35053 ft | 478 kts | 144° |
| 2026-05-08 01:50 | 32.18464 | -97.32405 | 35046 ft | 479 kts | 144° |
| 2026-05-08 01:51 | 32.13852 | -97.26727 | 35014 ft | 479 kts | 144° |
| 2026-05-08 01:51 | 32.09293 | -97.21122 | 35042 ft | 478 kts | 144° |
| 2026-05-08 01:52 | 32.04699 | -97.15484 | 35052 ft | 477 kts | 144° |
| 2026-05-08 01:52 | 32.00131 | -97.09888 | 35056 ft | 476 kts | 144° |
| 2026-05-08 01:53 | 31.95563 | -97.04300 | 35052 ft | 476 kts | 144° |
| 2026-05-08 01:53 | 31.90981 | -96.98703 | 35051 ft | 475 kts | 144° |
| 2026-05-08 01:54 | 31.86393 | -96.93109 | 34633 ft | 474 kts | 144° |
| 2026-05-08 01:54 | 31.84115 | -96.90328 | 34285 ft | 468 kts | 144° |
| 2026-05-08 01:54 | 31.81862 | -96.87580 | 33865 ft | 465 kts | 144° |
| 2026-05-08 01:55 | 31.79630 | -96.84863 | 33422 ft | 461 kts | 144° |
| 2026-05-08 01:55 | 31.77412 | -96.82166 | 32979 ft | 458 kts | 144° |
| 2026-05-08 01:55 | 31.75201 | -96.79481 | 32590 ft | 454 kts | 144° |
| 2026-05-08 01:55 | 31.73019 | -96.76833 | 32190 ft | 451 kts | 144° |
| 2026-05-08 01:56 | 31.70845 | -96.74196 | 31792 ft | 448 kts | 144° |
| 2026-05-08 01:56 | 31.68681 | -96.71575 | 31410 ft | 445 kts | 144° |
| 2026-05-08 01:56 | 31.66539 | -96.68981 | 31016 ft | 442 kts | 144° |
| 2026-05-08 01:56 | 31.64418 | -96.66415 | 30633 ft | 439 kts | 144° |
| 2026-05-08 01:57 | 31.62306 | -96.63862 | 30230 ft | 437 kts | 144° |
| 2026-05-08 01:57 | 31.60192 | -96.61308 | 29792 ft | 435 kts | 144° |
| 2026-05-08 01:57 | 31.58093 | -96.58773 | 29370 ft | 431 kts | 144° |
| 2026-05-08 01:57 | 31.56013 | -96.56261 | 28946 ft | 428 kts | 144° |
| 2026-05-08 01:58 | 31.53972 | -96.53799 | 28553 ft | 425 kts | 144° |
| 2026-05-08 01:58 | 31.51879 | -96.51406 | 28133 ft | 413 kts | 152° |
| 2026-05-08 01:58 | 31.49492 | -96.49761 | 27799 ft | 391 kts | 164° |
| 2026-05-08 01:58 | 31.47032 | -96.48320 | 27379 ft | 390 kts | 164° |
| 2026-05-08 01:59 | 31.44643 | -96.46902 | 26990 ft | 389 kts | 163° |
| 2026-05-08 01:59 | 31.42240 | -96.45455 | 26596 ft | 388 kts | 163° |
| 2026-05-08 01:59 | 31.39877 | -96.44019 | 26220 ft | 386 kts | 162° |
| 2026-05-08 01:59 | 31.37496 | -96.42566 | 25844 ft | 387 kts | 162° |
| 2026-05-08 02:00 | 31.35098 | -96.41101 | 25440 ft | 388 kts | 162° |
| 2026-05-08 02:00 | 31.32716 | -96.39644 | 25059 ft | 386 kts | 162° |
| 2026-05-08 02:00 | 31.30335 | -96.38187 | 24673 ft | 385 kts | 162° |
| 2026-05-08 02:00 | 31.27968 | -96.36742 | 24293 ft | 384 kts | 162° |
| 2026-05-08 02:01 | 31.25609 | -96.35303 | 23884 ft | 383 kts | 162° |
| 2026-05-08 02:01 | 31.23240 | -96.33861 | 23450 ft | 383 kts | 161° |
| 2026-05-08 02:01 | 31.20884 | -96.32426 | 22982 ft | 382 kts | 161° |
| 2026-05-08 02:01 | 31.18535 | -96.30995 | 22565 ft | 380 kts | 161° |
| 2026-05-08 02:02 | 31.16198 | -96.29572 | 22156 ft | 377 kts | 161° |
| 2026-05-08 02:02 | 31.13890 | -96.28167 | 21752 ft | 375 kts | 161° |
| 2026-05-08 02:02 | 31.11574 | -96.26760 | 21353 ft | 374 kts | 160° |
| 2026-05-08 02:02 | 31.09276 | -96.25363 | 20958 ft | 372 kts | 160° |
| 2026-05-08 02:03 | 31.06980 | -96.23969 | 20547 ft | 371 kts | 160° |
| 2026-05-08 02:03 | 31.04695 | -96.22582 | 20166 ft | 370 kts | 160° |
| 2026-05-08 02:03 | 31.02411 | -96.21197 | 19779 ft | 369 kts | 160° |
| 2026-05-08 02:03 | 31.00132 | -96.19815 | 19418 ft | 368 kts | 159° |
| 2026-05-08 02:04 | 30.97918 | -96.18417 | 19108 ft | 366 kts | 158° |
| 2026-05-08 02:04 | 30.95668 | -96.16957 | 18778 ft | 364 kts | 157° |
| 2026-05-08 02:04 | 30.93487 | -96.15536 | 18416 ft | 364 kts | 157° |
| 2026-05-08 02:04 | 30.91254 | -96.14088 | 18019 ft | 362 kts | 157° |
| 2026-05-08 02:05 | 30.89088 | -96.12689 | 17691 ft | 359 kts | 157° |
| 2026-05-08 02:05 | 30.86914 | -96.11288 | 17387 ft | 355 kts | 157° |
| 2026-05-08 02:05 | 30.84762 | -96.09904 | 17058 ft | 352 kts | 158° |
| 2026-05-08 02:05 | 30.82622 | -96.08529 | 16704 ft | 350 kts | 158° |
| 2026-05-08 02:06 | 30.80507 | -96.07170 | 16437 ft | 344 kts | 158° |
| 2026-05-08 02:06 | 30.78439 | -96.05840 | 16238 ft | 337 kts | 159° |
| 2026-05-08 02:06 | 30.76385 | -96.04524 | 15811 ft | 338 kts | 158° |
| 2026-05-08 02:06 | 30.74322 | -96.03203 | 15408 ft | 338 kts | 158° |
| 2026-05-08 02:07 | 30.72259 | -96.01881 | 15062 ft | 337 kts | 158° |
| 2026-05-08 02:07 | 30.70215 | -96.00570 | 14724 ft | 336 kts | 158° |
| 2026-05-08 02:07 | 30.68176 | -95.99264 | 14397 ft | 334 kts | 158° |
| 2026-05-08 02:07 | 30.66142 | -95.97962 | 14063 ft | 333 kts | 157° |
| 2026-05-08 02:08 | 30.64118 | -95.96668 | 13708 ft | 332 kts | 157° |
| 2026-05-08 02:08 | 30.62139 | -95.95401 | 13385 ft | 330 kts | 157° |
| 2026-05-08 02:08 | 30.60215 | -95.94171 | 13031 ft | 327 kts | 157° |
| 2026-05-08 02:08 | 30.58265 | -95.92924 | 12700 ft | 325 kts | 156° |
| 2026-05-08 02:09 | 30.56307 | -95.91672 | 12494 ft | 318 kts | 156° |
| 2026-05-08 02:09 | 30.54410 | -95.90458 | 12427 ft | 308 kts | 156° |
| 2026-05-08 02:09 | 30.52561 | -95.89276 | 12294 ft | 300 kts | 157° |
| 2026-05-08 02:09 | 30.50743 | -95.88118 | 12040 ft | 297 kts | 156° |
| 2026-05-08 02:10 | 30.48895 | -95.87105 | 11652 ft | 290 kts | 172° |
| 2026-05-08 02:10 | 30.46930 | -95.86791 | 11384 ft | 283 kts | 180° |
| 2026-05-08 02:10 | 30.44995 | -95.86597 | 11119 ft | 281 kts | 180° |
| 2026-05-08 02:10 | 30.43050 | -95.86403 | 10823 ft | 281 kts | 179° |
| 2026-05-08 02:11 | 30.41108 | -95.86203 | 10556 ft | 279 kts | 179° |
| 2026-05-08 02:11 | 30.39178 | -95.85998 | 10294 ft | 278 kts | 179° |
| 2026-05-08 02:11 | 30.37254 | -95.85789 | 10013 ft | 277 kts | 178° |
| 2026-05-08 02:11 | 30.35341 | -95.85578 | 9741 ft | 276 kts | 178° |
| 2026-05-08 02:12 | 30.33438 | -95.85366 | 9461 ft | 274 kts | 178° |
| 2026-05-08 02:12 | 30.31549 | -95.85155 | 9177 ft | 273 kts | 177° |
| 2026-05-08 02:12 | 30.29667 | -95.84944 | 8907 ft | 271 kts | 177° |
| 2026-05-08 02:12 | 30.27816 | -95.84735 | 8793 ft | 263 kts | 177° |
| 2026-05-08 02:13 | 30.26013 | -95.84532 | 8606 ft | 259 kts | 176° |
| 2026-05-08 02:13 | 30.24218 | -95.84331 | 8311 ft | 259 kts | 176° |
| 2026-05-08 02:13 | 30.22441 | -95.84132 | 8068 ft | 257 kts | 176° |
| 2026-05-08 02:13 | 30.20688 | -95.83938 | 7828 ft | 256 kts | 176° |
| 2026-05-08 02:14 | 30.18925 | -95.83690 | 7586 ft | 255 kts | 173° |
| 2026-05-08 02:14 | 30.17170 | -95.83386 | 7337 ft | 253 kts | 172° |
| 2026-05-08 02:14 | 30.15435 | -95.83084 | 7114 ft | 252 kts | 172° |
| 2026-05-08 02:14 | 30.13710 | -95.82791 | 6881 ft | 250 kts | 172° |
| 2026-05-08 02:15 | 30.11994 | -95.82510 | 6657 ft | 249 kts | 172° |
| 2026-05-08 02:15 | 30.10278 | -95.82241 | 6435 ft | 248 kts | 172° |
| 2026-05-08 02:15 | 30.08633 | -95.81989 | 6211 ft | 246 kts | 169° |
| 2026-05-08 02:15 | 30.07095 | -95.81193 | 5893 ft | 247 kts | 135° |
| 2026-05-08 02:16 | 30.06296 | -95.79475 | 5631 ft | 248 kts | 104° |
| 2026-05-08 02:16 | 30.05876 | -95.77544 | 5399 ft | 248 kts | 108° |
| 2026-05-08 02:16 | 30.05385 | -95.75637 | 5127 ft | 248 kts | 108° |
| 2026-05-08 02:16 | 30.04884 | -95.73755 | 4874 ft | 247 kts | 109° |
| 2026-05-08 02:17 | 30.04372 | -95.71862 | 4657 ft | 245 kts | 109° |
| 2026-05-08 02:17 | 30.03871 | -95.70025 | 4601 ft | 234 kts | 109° |
| 2026-05-08 02:17 | 30.03394 | -95.68284 | 4476 ft | 222 kts | 109° |
| 2026-05-08 02:17 | 30.02928 | -95.66598 | 4145 ft | 219 kts | 109° |
| 2026-05-08 02:18 | 30.02471 | -95.64943 | 3810 ft | 215 kts | 109° |
| 2026-05-08 02:18 | 30.02023 | -95.63326 | 3676 ft | 210 kts | 109° |
| 2026-05-08 02:18 | 30.01579 | -95.61726 | 3567 ft | 210 kts | 109° |
| 2026-05-08 02:18 | 30.01136 | -95.60129 | 3465 ft | 208 kts | 109° |
| 2026-05-08 02:19 | 30.00701 | -95.58566 | 3339 ft | 198 kts | 109° |
| 2026-05-08 02:19 | 30.00290 | -95.57087 | 3228 ft | 190 kts | 109° |
| 2026-05-08 02:19 | 29.99887 | -95.55642 | 3145 ft | 190 kts | 109° |
| 2026-05-08 02:19 | 29.99482 | -95.54188 | 3044 ft | 190 kts | 108° |
| 2026-05-08 02:20 | 29.99320 | -95.52682 | 2952 ft | 191 kts | 88° |
| 2026-05-08 02:20 | 29.99390 | -95.51147 | 2716 ft | 191 kts | 92° |
| 2026-05-08 02:20 | 29.99367 | -95.49630 | 2466 ft | 184 kts | 93° |
| 2026-05-08 02:20 | 29.99357 | -95.48222 | 2237 ft | 168 kts | 91° |
| 2026-05-08 02:21 | 29.99354 | -95.46937 | 2058 ft | 151 kts | 91° |
| 2026-05-08 02:21 | 29.99352 | -95.45768 | 1834 ft | 143 kts | 90° |
| 2026-05-08 02:21 | 29.99351 | -95.44623 | 1643 ft | 143 kts | 90° |
| 2026-05-08 02:21 | 29.99350 | -95.43471 | 1446 ft | 143 kts | 89° |
| 2026-05-08 02:22 | 29.99347 | -95.42315 | 1270 ft | 146 kts | 89° |
| 2026-05-08 02:22 | 29.99351 | -95.41141 | 1122 ft | 147 kts | 89° |
| 2026-05-08 02:22 | 29.99350 | -95.39959 | 875 ft | 148 kts | 88° |
| 2026-05-08 02:22 | 29.99339 | -95.38750 | 697 ft | 153 kts | 88° |
| 2026-05-08 02:23 | 29.99344 | -95.37500 | 515 ft | 158 kts | 86° |
| 2026-05-08 02:23 | 29.99344 | -95.36254 | 276 ft | 152 kts | 88° |
| 2026-05-08 02:23 | 29.99337 | -95.35079 | 117 ft | 142 kts | 86° |
| 2026-05-08 02:23 | 29.99342 | -95.34051 | 105 ft | 112 kts | 89° |
| 2026-05-08 02:24 | 29.99346 | -95.33341 | 107 ft | 49 kts | 91° |
| 2026-05-08 02:24 | 29.99344 | -95.32975 | 106 ft | 43 kts | 90° |
| 2026-05-08 02:24 | 29.99343 | -95.32689 | 105 ft | 25 kts | 89° |
| 2026-05-08 02:24 | 29.99317 | -95.32557 | 105 ft | 14 kts | 142° |
| 2026-05-08 02:25 | 29.99237 | -95.32539 | 105 ft | 11 kts | 180° |
| 2026-05-08 02:25 | 29.99162 | -95.32539 | 106 ft | 11 kts | 180° |
| 2026-05-08 02:25 | 29.99097 | -95.32568 | 106 ft | 10 kts | 236° |
| 2026-05-08 02:25 | 29.99089 | -95.32654 | 106 ft | 12 kts | 269° |
| 2026-05-08 02:26 | 29.99090 | -95.32776 | 106 ft | 19 kts | 270° |
| 2026-05-08 02:26 | 29.99091 | -95.32932 | 106 ft | 20 kts | 270° |
| 2026-05-08 02:26 | 29.99091 | -95.33086 | 106 ft | 19 kts | 270° |
| 2026-05-08 02:26 | 29.99091 | -95.33235 | 106 ft | 18 kts | 270° |
| 2026-05-08 02:27 | 29.99091 | -95.33379 | 106 ft | 18 kts | 269° |
| 2026-05-08 02:27 | 29.99091 | -95.33518 | 106 ft | 17 kts | 270° |
| 2026-05-08 02:27 | 29.99090 | -95.33652 | 106 ft | 17 kts | 269° |
| 2026-05-08 02:27 | 29.99089 | -95.33799 | 106 ft | 19 kts | 269° |
| 2026-05-08 02:28 | 29.99089 | -95.33953 | 106 ft | 19 kts | 270° |
| 2026-05-08 02:28 | 29.99088 | -95.34102 | 106 ft | 18 kts | 269° |
| 2026-05-08 02:28 | 29.99086 | -95.34218 | 106 ft | 9 kts | 260° |
| 2026-05-08 02:28 | 29.99039 | -95.34259 | 106 ft | 11 kts | 188° |
| 2026-05-08 02:29 | 29.98976 | -95.34256 | 106 ft | 7 kts | 155° |
| 2026-05-08 02:29 | 29.98948 | -95.34212 | 106 ft | 2 kts | 119° |
| 2026-05-08 02:29 | 29.98944 | -95.34203 | 106 ft | 0 kts | 119° |
| 2026-05-08 02:29 | 29.98944 | -95.34202 | 106 ft | 0 kts | 119° |